Time;durP1;ratioP1;P1;durP2;ratioP2;P2;SDS_P1;SDS_P2;PMS_P1;PMS_P2;Temp;Humidity;BMP_temperature;BMP_pressure;BME280_temperature;BME280_humidity;BME280_pressure;Samples;Min_cycle;Max_cycle;Signal;HPM_P1;HPM_P2
2023/10/27 00:01:03;;;;;;;70.60;23.23;;;;;;;10.33;100.00;99230.19;6084617;19;20010;-68
2023/10/27 00:03:11;;;;;;;73.72;23.55;;;;;;;10.36;100.00;99234.41;6085780;19;20010;-69
2023/10/27 00:05:16;;;;;;;72.20;22.20;;;;;;;10.37;100.00;99236.06;6084519;19;21816;-68
2023/10/27 00:07:22;;;;;;;70.90;23.65;;;;;;;10.34;100.00;99236.28;6086068;19;20641;-70
2023/10/27 00:09:27;;;;;;;73.35;23.80;;;;;;;10.33;100.00;99234.59;6084855;19;20003;-68
2023/10/27 00:11:29;;;;;;;75.15;24.38;;;;;;;10.30;100.00;99230.38;6083500;19;20017;-68
2023/10/27 00:13:34;;;;;;;74.70;24.17;;;;;;;10.31;100.00;99232.06;6087469;19;20006;-69
2023/10/27 00:15:40;;;;;;;75.13;23.38;;;;;;;10.40;100.00;99235.03;6085494;19;20611;-69
2023/10/27 00:17:45;;;;;;;71.35;22.42;;;;;;;10.36;100.00;99233.56;6084572;19;20360;-70
2023/10/27 00:19:53;;;;;;;73.85;24.10;;;;;;;10.33;100.00;99226.72;6084793;19;21036;-69
2023/10/27 00:22:00;;;;;;;79.07;25.33;;;;;;;10.29;100.00;99231.34;6086994;19;20006;-69
2023/10/27 00:24:06;;;;;;;71.38;23.95;;;;;;;10.35;100.00;99223.97;6085119;19;20016;-69
2023/10/27 00:26:11;;;;;;;80.38;23.65;;;;;;;10.36;100.00;99228.31;6084388;19;20031;-69
2023/10/27 00:28:16;;;;;;;72.78;23.65;;;;;;;10.35;100.00;99226.59;6085871;19;20033;-69
2023/10/27 00:30:21;;;;;;;70.32;23.75;;;;;;;10.31;100.00;99226.81;6085115;19;20010;-68
2023/10/27 00:32:24;;;;;;;80.35;23.25;;;;;;;10.37;100.00;99225.56;6082480;19;20023;-68
2023/10/27 00:34:29;;;;;;;76.88;23.55;;;;;;;10.40;100.00;99224.53;6083384;19;20614;-68
2023/10/27 00:36:36;;;;;;;77.50;23.48;;;;;;;10.36;100.00;99218.63;6084239;19;20481;-68
2023/10/27 00:38:41;;;;;;;83.68;22.42;;;;;;;10.29;100.00;99212.09;6080583;19;20007;-68
2023/10/27 00:40:46;;;;;;;71.10;23.23;;;;;;;10.29;100.00;99214.72;6085011;19;20033;-68
2023/10/27 00:42:51;;;;;;;65.10;21.42;;;;;;;10.30;100.00;99212.00;6085451;19;20025;-68
2023/10/27 00:44:56;;;;;;;67.35;21.42;;;;;;;10.29;100.00;99212.97;6084604;19;20003;-68
2023/10/27 00:47:22;;;;;;;73.38;23.67;;;;;;;10.32;100.00;99206.66;6083974;19;20502;-69
2023/10/27 00:49:28;;;;;;;62.95;19.67;;;;;;;10.30;100.00;99213.81;6083524;19;20003;-69
2023/10/27 00:51:36;;;;;;;66.82;19.80;;;;;;;10.33;100.00;99201.31;6075698;19;20013;-69
2023/10/27 00:53:41;;;;;;;75.25;23.05;;;;;;;10.41;100.00;99206.06;6079570;19;20017;-70
2023/10/27 00:55:44;;;;;;;69.60;21.60;;;;;;;10.33;100.00;99205.72;6078569;19;20113;-69
2023/10/27 00:57:50;;;;;;;;;;;;;;;10.33;100.00;99203.09;6081051;19;20425;-67
2023/10/27 00:59:53;;;;;;;65.95;18.70;;;;;;;10.34;100.00;99199.50;6080036;19;20300;-68
2023/10/27 01:01:58;;;;;;;63.67;20.15;;;;;;;10.30;100.00;99200.69;6081444;19;20015;-68
2023/10/27 01:04:03;;;;;;;70.47;20.83;;;;;;;10.32;100.00;99198.75;6081789;19;20269;-68
2023/10/27 01:06:09;;;;;;;70.53;21.27;;;;;;;10.40;100.00;99193.88;6081619;19;20010;-68
2023/10/27 01:08:14;;;;;;;65.47;19.20;;;;;;;10.39;100.00;99192.19;6084190;19;20459;-68
2023/10/27 01:10:22;;;;;;;66.97;20.83;;;;;;;10.32;100.00;99198.75;6083547;19;20006;-69
2023/10/27 01:12:27;;;;;;;71.40;19.63;;;;;;;10.36;100.00;99189.75;6082752;19;20011;-68
2023/10/27 01:14:33;;;;;;;65.32;17.42;;;;;;;10.36;100.00;99187.13;6086686;19;20003;-68
2023/10/27 01:16:35;;;;;;;78.65;18.00;;;;;;;10.36;100.00;99184.50;6087277;19;20460;-69
2023/10/27 01:18:41;;;;;;;75.65;19.35;;;;;;;10.32;100.00;99186.50;6084473;19;20007;-69
2023/10/27 01:20:46;;;;;;;53.67;17.15;;;;;;;10.31;100.00;99181.34;6088067;19;20020;-69
2023/10/27 01:22:53;;;;;;;64.43;18.55;;;;;;;10.35;100.00;99184.59;6085461;19;20006;-68
2023/10/27 01:25:01;;;;;;;68.82;17.33;;;;;;;10.30;100.00;99179.66;6088105;19;20362;-69
2023/10/27 01:27:06;;;;;;;70.70;19.55;;;;;;;10.28;100.00;99184.19;6086144;19;20307;-68
2023/10/27 01:29:11;;;;;;;52.67;16.33;;;;;;;10.26;100.00;99180.78;6087331;19;20014;-69
2023/10/27 01:31:16;;;;;;;58.38;17.23;;;;;;;10.30;100.00;99174.41;6086806;19;20011;-69
2023/10/27 01:33:21;;;;;;;54.15;16.00;;;;;;;10.27;100.00;99174.59;6084877;19;20003;-68
2023/10/27 01:35:26;;;;;;;47.65;14.55;;;;;;;10.28;100.00;99171.06;6085863;19;20002;-69
2023/10/27 01:37:32;;;;;;;45.03;14.38;;;;;;;10.32;100.00;99175.13;6084677;19;20500;-69
2023/10/27 01:39:40;;;;;;;44.13;13.82;;;;;;;10.29;100.00;99177.97;6083781;19;20495;-70
2023/10/27 01:41:45;;;;;;;46.83;13.75;;;;;;;10.38;100.00;99168.66;6082907;19;20023;-70
2023/10/27 01:43:48;;;;;;;55.08;14.90;;;;;;;10.30;100.00;99174.41;6082568;19;20012;-69
2023/10/27 01:45:53;;;;;;;;;;;;;;;10.30;100.00;99171.78;6084269;19;20010;-69
2023/10/27 01:47:59;;;;;;;52.25;14.20;;;;;;;10.33;100.00;99174.22;6082561;19;20479;-69
2023/10/27 01:50:04;;;;;;;60.65;16.38;;;;;;;10.27;100.00;99179.84;6081449;19;20085;-68
2023/10/27 01:52:06;;;;;;;51.08;15.55;;;;;;;10.30;100.00;99171.78;6080104;19;20360;-68
2023/10/27 01:54:11;;;;;;;54.53;15.82;;;;;;;10.37;100.00;99175.69;6079379;19;20392;-69
2023/10/27 01:56:19;;;;;;;62.97;17.45;;;;;;;10.35;100.00;99169.72;6081111;19;20029;-68
2023/10/27 01:58:27;;;;;;;69.68;18.55;;;;;;;10.33;100.00;99176.84;6081575;19;20007;-69
2023/10/27 02:00:32;;;;;;;64.45;17.52;;;;;;;10.38;100.00;99168.66;6080112;19;20022;-69
2023/10/27 02:02:37;;;;;;;60.47;16.75;;;;;;;10.36;100.00;99176.63;6080482;19;20074;-68
2023/10/27 02:04:42;;;;;;;67.35;16.75;;;;;;;10.32;100.00;99173.38;6082349;19;20002;-68
2023/10/27 02:06:48;;;;;;;65.97;17.60;;;;;;;10.34;100.00;99175.88;6081938;19;20010;-68
2023/10/27 02:08:53;;;;;;;61.60;17.60;;;;;;;10.33;100.00;99168.97;6079645;19;20011;-68
2023/10/27 02:11:01;;;;;;;63.35;18.73;;;;;;;10.35;100.00;99166.22;6078930;19;20102;-67
2023/10/27 02:13:08;;;;;;;50.92;15.48;;;;;;;10.37;100.00;99161.72;6081104;19;20006;-70
2023/10/27 02:15:14;;;;;;;60.60;16.52;;;;;;;10.31;100.00;99163.81;6085337;19;20013;-68
2023/10/27 02:17:21;;;;;;;55.63;17.33;;;;;;;10.33;100.00;99155.84;6085689;19;20375;-68
2023/10/27 02:19:26;;;;;;;55.67;16.98;;;;;;;10.32;100.00;99160.25;6087116;19;20022;-68
2023/10/27 02:21:31;;;;;;;51.88;15.95;;;;;;;10.32;100.00;99159.38;6087018;19;20095;-68
2023/10/27 02:23:36;;;;;;;61.22;19.35;;;;;;;10.32;100.00;99159.38;6087662;19;20003;-69
2023/10/27 02:25:41;;;;;;;53.53;16.55;;;;;;;10.36;100.00;99154.78;6084399;19;20538;-68
2023/10/27 02:27:46;;;;;;;54.28;16.85;;;;;;;10.33;100.00;99158.47;6086831;19;20360;-69
2023/10/27 02:29:53;;;;;;;57.20;16.63;;;;;;;10.40;100.00;99156.25;6089915;19;20034;-69
2023/10/27 02:31:58;;;;;;;51.42;17.42;;;;;;;10.38;100.00;99148.50;6087846;19;20456;-68
2023/10/27 02:34:01;;;;;;;53.15;16.63;;;;;;;10.34;100.00;99157.50;6087703;19;20035;-69
2023/10/27 02:36:07;;;;;;;52.60;16.25;;;;;;;10.38;100.00;99158.16;6087556;19;20020;-68
2023/10/27 02:38:12;;;;;;;46.15;15.90;;;;;;;10.39;100.00;99163.28;6085795;19;20564;-68
2023/10/27 02:40:18;;;;;;;42.97;15.52;;;;;;;10.35;100.00;99164.47;6087380;19;20118;-69
2023/10/27 02:42:23;;;;;;;47.22;15.95;;;;;;;10.36;100.00;99153.00;6085318;19;20115;-69
2023/10/27 02:44:28;;;;;;;44.00;15.55;;;;;;;10.38;100.00;99156.38;6085744;19;20011;-68
2023/10/27 02:46:36;;;;;;;45.63;15.90;;;;;;;10.42;100.00;99151.75;6083250;19;20006;-69
2023/10/27 02:48:42;;;;;;;42.25;13.32;;;;;;;10.41;100.00;99148.28;6086599;19;20428;-68
2023/10/27 02:50:47;;;;;;;39.17;14.05;;;;;;;10.40;100.00;99151.00;6083079;19;20019;-68
2023/10/27 02:52:52;;;;;;;40.03;12.00;;;;;;;10.43;100.00;99145.56;6084701;19;20463;-68
2023/10/27 02:54:57;;;;;;;39.75;12.65;;;;;;;10.39;100.00;99147.53;6085488;19;20026;-69
2023/10/27 02:57:02;;;;;;;36.67;13.15;;;;;;;10.37;100.00;99143.34;6085019;19;20582;-69
2023/10/27 02:59:09;;;;;;;35.67;12.15;;;;;;;10.39;100.00;99138.81;6083824;19;20489;-68
2023/10/27 03:01:16;;;;;;;25.23;10.68;;;;;;;10.43;100.00;99146.41;6084808;19;20014;-69
2023/10/27 03:03:24;;;;;;;26.25;9.80;;;;;;;10.39;100.00;99139.66;6084659;19;20928;-68
2023/10/27 03:05:29;;;;;;;26.20;10.70;;;;;;;10.39;100.00;99142.28;6086363;19;20207;-69
2023/10/27 03:07:32;;;;;;;27.75;9.07;;;;;;;10.45;100.00;99144.53;6085610;19;20038;-68
2023/10/27 03:09:37;;;;;;;32.63;10.68;;;;;;;10.36;100.00;99149.53;6087046;19;20074;-69
2023/10/27 03:11:42;;;;;;;31.90;10.80;;;;;;;10.32;100.00;99138.38;6083740;19;20006;-69
2023/10/27 03:13:46;;;;;;;34.58;9.88;;;;;;;10.38;100.00;99153.75;6083938;19;20007;-69
2023/10/27 03:15:51;;;;;;;30.40;10.38;;;;;;;10.37;100.00;99144.16;6088082;19;20023;-69
2023/10/27 03:17:56;;;;;;;22.50;8.77;;;;;;;10.37;100.00;99146.78;6084463;19;20010;-69
2023/10/27 03:20:04;;;;;;;32.35;10.57;;;;;;;10.37;100.00;99154.66;6083846;19;20069;-69
2023/10/27 03:22:07;;;;;;;23.95;8.90;;;;;;;10.37;100.00;99145.97;6083368;19;20049;-69
2023/10/27 03:24:13;;;;;;;30.60;10.02;;;;;;;10.41;100.00;99147.44;6086629;19;20010;-69
2023/10/27 03:26:18;;;;;;;27.33;10.00;;;;;;;10.47;100.00;99147.88;6079679;19;20106;-69
2023/10/27 03:28:23;;;;;;;27.70;9.18;;;;;;;10.42;100.00;99142.06;6085012;19;20385;-68
2023/10/27 03:30:28;;;;;;;27.42;9.60;;;;;;;10.37;100.00;99144.16;6088313;19;20014;-70
2023/10/27 03:32:33;;;;;;;27.33;9.82;;;;;;;10.39;100.00;99144.06;6085019;19;20006;-68
2023/10/27 03:34:38;;;;;;;22.88;8.68;;;;;;;10.31;100.00;99144.59;6083693;19;20034;-69
2023/10/27 03:36:46;;;;;;;27.27;9.32;;;;;;;10.32;100.00;99144.50;6087428;19;20010;-69
2023/10/27 03:38:51;;;;;;;32.53;10.52;;;;;;;10.34;100.00;99136.50;6086453;19;20014;-70
2023/10/27 03:40:56;;;;;;;25.92;9.65;;;;;;;10.28;100.00;99142.16;6084604;19;20006;-70
2023/10/27 03:43:01;;;;;;;28.85;10.18;;;;;;;10.31;100.00;99134.09;6082990;19;20086;-69
2023/10/27 03:45:06;;;;;;;22.35;8.85;;;;;;;10.32;100.00;99136.63;6088288;19;20011;-69
2023/10/27 03:47:12;;;;;;;27.60;8.82;;;;;;;10.36;100.00;99124.13;6085042;19;20018;-69
2023/10/27 03:49:19;;;;;;;33.25;9.90;;;;;;;10.31;100.00;99131.47;6086838;19;20051;-71
2023/10/27 03:51:25;;;;;;;26.52;9.40;;;;;;;10.26;100.00;99136.97;6084024;19;20471;-68
2023/10/27 03:53:36;;;;;;;31.77;10.38;;;;;;;10.28;100.00;99143.00;6082880;19;20027;-68
2023/10/27 03:55:41;;;;;;;30.33;9.52;;;;;;;10.31;100.00;99136.72;6083974;19;20023;-68
2023/10/27 03:57:46;;;;;;;26.35;9.55;;;;;;;10.28;100.00;99137.75;6078137;19;20036;-67
2023/10/27 03:59:51;;;;;;;23.38;9.82;;;;;;;10.28;100.00;99140.38;6080880;19;20350;-70
2023/10/27 04:01:56;;;;;;;31.17;10.60;;;;;;;10.29;100.00;99138.59;6085881;19;20034;-69
2023/10/27 04:04:01;;;;;;;26.65;10.25;;;;;;;10.24;100.00;99135.41;6083871;19;20032;-69
2023/10/27 04:06:04;;;;;;;28.45;9.10;;;;;;;10.22;100.00;99132.06;6087621;19;20030;-69
2023/10/27 04:08:10;;;;;;;28.52;9.15;;;;;;;10.23;100.00;99137.19;6085567;19;20010;-68
2023/10/27 04:10:18;;;;;;;28.60;9.73;;;;;;;10.28;100.00;99144.78;6086518;19;20019;-68
2023/10/27 04:12:25;;;;;;;23.73;8.90;;;;;;;10.33;100.00;99138.28;6087692;19;20015;-69
2023/10/27 04:14:30;;;;;;;27.58;10.65;;;;;;;10.33;100.00;99134.81;6087304;19;20027;-68
2023/10/27 04:16:34;;;;;;;25.05;9.25;;;;;;;10.31;100.00;99139.34;6085786;19;20028;-69
2023/10/27 04:18:40;;;;;;;21.75;8.70;;;;;;;10.26;100.00;99138.75;6084535;19;20557;-69
2023/10/27 04:20:45;;;;;;;29.08;9.82;;;;;;;10.26;100.00;99139.59;6084778;19;20006;-69
2023/10/27 04:22:48;;;;;;;27.05;9.10;;;;;;;10.24;100.00;99143.28;6083760;19;20441;-69
2023/10/27 04:24:52;;;;;;;;;;;;;;;10.24;100.00;99140.66;6085621;19;20636;-69
2023/10/27 04:27:00;;;;;;;27.50;9.43;;;;;;;10.19;100.00;99138.34;6082610;19;19989;-69
2023/10/27 04:29:06;;;;;;;28.05;10.32;;;;;;;10.30;100.00;99129.78;6082698;19;20073;-68
2023/10/27 04:31:11;;;;;;;28.00;10.80;;;;;;;10.25;100.00;99139.72;6083381;19;20023;-68
2023/10/27 04:33:16;;;;;;;30.05;11.15;;;;;;;10.22;100.00;99139.94;6083596;19;20556;-68
2023/10/27 04:35:19;;;;;;;29.98;10.23;;;;;;;10.19;100.00;99135.72;6084835;19;20011;-68
2023/10/27 04:37:24;;;;;;;25.73;9.40;;;;;;;10.18;100.00;99136.66;6082724;19;20014;-69
2023/10/27 04:39:29;;;;;;;29.77;10.43;;;;;;;10.21;100.00;99133.81;6083691;19;20101;-68
2023/10/27 04:41:32;;;;;;;28.95;8.68;;;;;;;10.19;100.00;99137.47;6082021;19;20006;-68
2023/10/27 04:43:40;;;;;;;24.25;9.30;;;;;;;10.18;100.00;99138.44;6082950;19;20302;-68
2023/10/27 04:45:45;;;;;;;27.70;10.13;;;;;;;10.19;100.00;99142.72;6082721;19;20023;-68
2023/10/27 04:47:50;;;;;;;28.52;10.43;;;;;;;10.22;100.00;99142.56;6082895;19;20423;-69
2023/10/27 04:49:53;;;;;;;30.75;10.93;;;;;;;10.19;100.00;99142.72;6083049;19;20082;-68
2023/10/27 04:51:59;;;;;;;24.75;9.93;;;;;;;10.18;100.00;99151.56;6082204;19;20011;-70
2023/10/27 04:54:04;;;;;;;29.00;9.80;;;;;;;10.22;100.00;99147.81;6080578;19;20098;-69
2023/10/27 04:56:09;;;;;;;29.23;10.30;;;;;;;10.17;100.00;99144.63;6082610;19;20048;-68
2023/10/27 04:58:14;;;;;;;31.58;10.30;;;;;;;10.22;100.00;99142.56;6081289;19;20011;-69
2023/10/27 05:00:20;;;;;;;27.10;9.43;;;;;;;10.19;100.00;99142.72;6079003;19;20011;-69
2023/10/27 05:02:25;;;;;;;27.90;10.55;;;;;;;10.24;100.00;99145.91;6083565;19;19999;-68
2023/10/27 05:04:30;;;;;;;33.92;12.00;;;;;;;10.17;100.00;99134.97;6083700;19;20180;-69
2023/10/27 05:06:35;;;;;;;29.27;11.20;;;;;;;10.19;100.00;99138.34;6085231;19;20041;-69
2023/10/27 05:08:40;;;;;;;33.85;11.35;;;;;;;10.22;100.00;99147.81;6085702;19;20470;-69
2023/10/27 05:10:47;;;;;;;31.40;10.43;;;;;;;10.23;100.00;99138.97;6085522;19;20478;-67
2023/10/27 05:12:52;;;;;;;28.75;11.77;;;;;;;10.22;100.00;99138.13;6083332;19;20066;-69
2023/10/27 05:14:57;;;;;;;30.55;10.77;;;;;;;10.26;100.00;99133.50;6083024;19;20366;-68
2023/10/27 05:17:05;;;;;;;32.15;10.85;;;;;;;10.23;100.00;99138.97;6079713;19;20452;-68
2023/10/27 05:19:12;;;;;;;33.65;10.85;;;;;;;10.17;100.00;99140.22;6081790;19;20007;-68
2023/10/27 05:21:20;;;;;;;30.98;11.00;;;;;;;10.20;100.00;99137.41;6083285;19;20802;-68
2023/10/27 05:23:22;;;;;;;25.30;10.07;;;;;;;10.18;100.00;99133.19;6082091;19;20410;-68
2023/10/27 05:25:27;;;;;;;30.30;11.07;;;;;;;10.15;100.00;99139.47;6083434;19;20049;-68
2023/10/27 05:27:33;;;;;;;30.38;11.38;;;;;;;10.16;100.00;99143.78;6081075;19;20306;-68
2023/10/27 05:29:38;;;;;;;25.60;10.88;;;;;;;10.14;100.00;99144.81;6081772;19;20011;-70
2023/10/27 05:31:43;;;;;;;33.70;11.20;;;;;;;10.11;100.00;99138.00;6083697;19;20026;-69
2023/10/27 05:33:53;;;;;;;30.42;10.95;;;;;;;10.08;100.00;99139.06;6083586;19;20371;-69
2023/10/27 05:35:58;;;;;;;33.10;12.13;;;;;;;10.08;100.00;99144.31;6079413;19;20105;-69
2023/10/27 05:38:03;;;;;;;28.55;11.07;;;;;;;10.18;100.00;99139.28;6082567;19;20010;-68
2023/10/27 05:40:10;;;;;;;29.58;10.10;;;;;;;10.20;100.00;99144.44;6083551;19;20034;-69
2023/10/27 05:42:16;;;;;;;30.65;9.90;;;;;;;10.21;100.00;99141.69;6083529;19;20006;-68
2023/10/27 05:44:21;;;;;;;27.67;10.05;;;;;;;10.13;100.00;99138.72;6082074;19;20014;-68
2023/10/27 05:46:28;;;;;;;28.33;10.20;;;;;;;10.11;100.00;99143.25;6083472;19;20523;-69
2023/10/27 05:48:34;;;;;;;30.30;10.73;;;;;;;10.11;100.00;99141.47;6081525;19;20022;-69
2023/10/27 05:50:39;;;;;;;25.23;10.00;;;;;;;10.14;100.00;99144.81;6086129;19;20543;-69
2023/10/27 05:52:44;;;;;;;28.05;9.98;;;;;;;10.14;100.00;99136.94;6084894;19;20430;-69
2023/10/27 05:54:49;;;;;;;31.17;11.45;;;;;;;10.13;100.00;99138.72;6087192;19;20665;-69
2023/10/27 05:56:55;;;;;;;27.48;11.20;;;;;;;10.10;100.00;99138.94;6085809;19;20467;-68
2023/10/27 05:59:00;;;;;;;27.08;10.00;;;;;;;10.08;100.00;99139.06;6086909;19;20023;-69
2023/10/27 06:01:06;;;;;;;27.98;9.68;;;;;;;10.10;100.00;99141.56;6088012;19;20455;-68
2023/10/27 06:03:15;;;;;;;27.17;10.57;;;;;;;10.17;100.00;99134.13;6087154;19;20030;-69
2023/10/27 06:05:22;;;;;;;34.50;11.32;;;;;;;10.08;100.00;99139.06;6086068;19;20562;-68
2023/10/27 06:07:30;;;;;;;30.02;10.07;;;;;;;10.07;100.00;99137.34;6087432;19;20015;-68
2023/10/27 06:09:35;;;;;;;26.85;10.68;;;;;;;10.13;100.00;99143.16;6087810;19;20003;-69
2023/10/27 06:11:40;;;;;;;29.50;11.07;;;;;;;10.11;100.00;99144.09;6090561;19;20316;-68
2023/10/27 06:13:45;;;;;;;30.20;11.13;;;;;;;10.10;100.00;99144.19;6091977;19;20033;-69
2023/10/27 06:15:50;;;;;;;35.55;11.95;;;;;;;10.11;100.00;99149.34;6091651;19;20110;-68
2023/10/27 06:17:54;;;;;;;31.75;11.77;;;;;;;10.11;100.00;99145.88;6090941;19;20024;-68
2023/10/27 06:19:57;;;;;;;32.88;12.20;;;;;;;10.07;100.00;99142.59;6087931;19;20013;-68
2023/10/27 06:22:20;;;;;;;32.00;9.65;;;;;;;10.13;100.00;99138.72;6091838;19;20041;-70
2023/10/27 06:24:30;;;;;;;34.30;11.77;;;;;;;10.15;100.00;99147.34;6090419;19;20010;-69
2023/10/27 06:26:35;;;;;;;38.60;11.57;;;;;;;10.11;100.00;99144.09;6090380;19;20023;-68
2023/10/27 06:28:41;;;;;;;31.90;10.80;;;;;;;10.17;100.00;99144.63;6088325;19;20023;-69
2023/10/27 06:30:51;;;;;;;28.95;10.45;;;;;;;10.13;100.00;99149.22;6088330;19;20013;-69
2023/10/27 06:32:56;;;;;;;29.33;9.85;;;;;;;10.10;100.00;99145.03;6089733;19;20117;-68
2023/10/27 06:35:01;;;;;;;25.80;9.85;;;;;;;10.10;100.00;99147.66;6091408;19;20021;-70
2023/10/27 06:37:06;;;;;;;33.22;11.55;;;;;;;10.07;100.00;99147.84;6089524;19;20415;-69
2023/10/27 06:39:19;;;;;;;30.45;11.18;;;;;;;10.08;100.00;99146.94;6090192;19;20501;-69
2023/10/27 06:41:31;;;;;;;29.55;9.77;;;;;;;10.11;100.00;99151.97;6090640;19;20019;-70
2023/10/27 06:43:36;;;;;;;32.05;9.25;;;;;;;10.14;100.00;99150.06;6091553;19;20016;-70
2023/10/27 06:45:41;;;;;;;30.75;11.43;;;;;;;10.14;100.00;99152.69;6088729;19;20483;-68
2023/10/27 06:47:46;;;;;;;29.25;10.13;;;;;;;10.14;100.00;99155.31;6089828;19;20007;-70
2023/10/27 06:49:51;;;;;;;27.60;10.60;;;;;;;10.09;100.00;99153.00;6090538;19;20007;-68
2023/10/27 06:51:54;;;;;;;28.15;10.43;;;;;;;10.10;100.00;99154.69;6088117;19;20007;-69
2023/10/27 06:53:59;;;;;;;30.60;9.93;;;;;;;10.12;100.00;99152.81;6087916;19;20094;-70
2023/10/27 06:56:04;;;;;;;31.38;10.80;;;;;;;10.08;100.00;99157.44;6089584;19;20003;-69
2023/10/27 06:58:12;;;;;;;24.23;10.15;;;;;;;10.06;100.00;99158.47;6088345;19;20014;-70
2023/10/27 07:00:19;;;;;;;28.23;10.55;;;;;;;10.04;100.00;99160.34;6074492;19;20002;-68
2023/10/27 07:02:24;;;;;;;31.85;11.27;;;;;;;10.03;100.00;99163.91;6088616;19;20003;-69
2023/10/27 07:04:29;;;;;;;30.40;9.80;;;;;;;10.03;100.00;99167.38;6085095;19;20482;-69
2023/10/27 07:06:35;;;;;;;24.48;8.98;;;;;;;10.05;100.00;99167.25;6091096;19;20006;-69
2023/10/27 07:08:40;;;;;;;24.95;10.27;;;;;;;10.05;100.00;99173.34;6089433;19;20391;-68
2023/10/27 07:10:46;;;;;;;22.08;9.52;;;;;;;10.07;100.00;99174.09;6085222;19;20694;-69
2023/10/27 07:12:48;;;;;;;29.27;9.80;;;;;;;10.06;100.00;99175.06;6086673;19;20008;-69
2023/10/27 07:14:56;;;;;;;24.88;9.95;;;;;;;10.05;100.00;99172.50;6089205;19;20031;-68
2023/10/27 07:17:00;;;;;;;25.08;9.07;;;;;;;10.05;100.00;99178.59;6087516;19;20054;-70
2023/10/27 07:19:06;;;;;;;26.65;10.38;;;;;;;10.06;100.00;99176.84;6088286;19;20007;-68
2023/10/27 07:21:12;;;;;;;21.27;9.00;;;;;;;10.08;100.00;99175.81;6087798;19;20074;-68
2023/10/27 07:23:17;;;;;;;22.55;9.50;;;;;;;10.07;100.00;99176.72;6088057;19;20003;-68
2023/10/27 07:25:22;;;;;;;22.40;9.63;;;;;;;10.07;100.00;99174.09;6085610;19;20011;-70
2023/10/27 07:27:28;;;;;;;28.13;9.90;;;;;;;10.08;100.00;99175.81;6081074;19;20015;-69
2023/10/27 07:29:33;;;;;;;24.27;8.98;;;;;;;10.05;100.00;99175.97;6081981;19;20002;-69
2023/10/27 07:31:42;;;;;;;27.13;8.98;;;;;;;10.09;100.00;99174.00;6080915;19;20006;-69
2023/10/27 07:33:47;;;;;;;25.88;10.15;;;;;;;10.13;100.00;99179.88;6085305;19;20011;-69
2023/10/27 07:35:49;;;;;;;24.48;9.75;;;;;;;10.11;100.00;99180.00;6085808;19;20042;-68
2023/10/27 07:37:54;;;;;;;31.60;10.43;;;;;;;10.14;100.00;99178.94;6085228;19;20347;-69
2023/10/27 07:39:56;;;;;;;25.13;10.20;;;;;;;10.15;100.00;99180.63;6085115;19;20277;-68
2023/10/27 07:42:02;;;;;;;28.38;9.38;;;;;;;10.17;100.00;99181.38;6085602;19;20014;-69
2023/10/27 07:44:08;;;;;;;23.60;9.20;;;;;;;10.18;100.00;99193.56;6089334;19;20475;-70
2023/10/27 07:46:13;;;;;;;23.63;9.70;;;;;;;10.21;100.00;99182.84;6083795;19;20002;-69
2023/10/27 07:48:18;;;;;;;28.70;9.65;;;;;;;10.22;100.00;99189.81;6088577;19;20010;-69
2023/10/27 07:50:23;;;;;;;24.38;10.27;;;;;;;10.21;100.00;99188.09;6086355;19;20014;-69
2023/10/27 07:52:29;;;;;;;26.27;10.85;;;;;;;10.25;100.00;99193.06;6078992;19;20017;-69
2023/10/27 07:54:34;;;;;;;28.92;9.60;;;;;;;10.28;100.00;99195.50;6079791;19;20037;-69
2023/10/27 07:56:39;;;;;;;27.08;11.20;;;;;;;10.28;100.00;99198.13;6083516;19;20006;-69
2023/10/27 07:58:44;;;;;;;24.98;9.07;;;;;;;10.27;100.00;99199.09;6082701;19;20073;-68
2023/10/27 08:00:51;;;;;;;28.25;9.63;;;;;;;10.29;100.00;99194.59;6083679;19;20451;-69
2023/10/27 08:02:56;;;;;;;23.45;9.40;;;;;;;10.31;100.00;99191.84;6083699;19;20015;-69
2023/10/27 08:05:03;;;;;;;27.52;10.23;;;;;;;10.29;100.00;99193.72;6077394;19;20053;-69
2023/10/27 08:07:08;;;;;;;25.90;9.50;;;;;;;10.37;100.00;99198.47;6082679;19;20013;-69
2023/10/27 08:09:13;;;;;;;24.65;9.68;;;;;;;10.35;100.00;99200.34;6081279;19;20383;-69
2023/10/27 08:11:19;;;;;;;25.38;9.75;;;;;;;10.33;100.00;99195.22;6083207;19;20002;-69
2023/10/27 08:13:24;;;;;;;28.08;10.30;;;;;;;10.37;100.00;99198.47;6079878;19;20502;-69
2023/10/27 08:15:29;;;;;;;29.10;10.98;;;;;;;10.38;100.00;99195.75;6077298;19;20029;-69
2023/10/27 08:17:35;;;;;;;27.70;10.65;;;;;;;10.37;100.00;99199.31;6082862;19;20477;-69
2023/10/27 08:19:41;;;;;;;28.50;9.30;;;;;;;10.42;100.00;99204.25;6081270;19;20003;-69
2023/10/27 08:21:49;;;;;;;27.83;8.90;;;;;;;10.46;100.00;99209.22;6082430;19;20012;-69
2023/10/27 08:23:54;;;;;;;30.25;10.82;;;;;;;10.42;100.00;99210.34;6081836;19;20011;-68
2023/10/27 08:25:59;;;;;;;27.85;9.48;;;;;;;10.42;100.00;99201.63;6081834;19;20027;-69
2023/10/27 08:28:04;;;;;;;29.83;9.23;;;;;;;10.40;100.00;99204.38;6081682;19;20448;-68
2023/10/27 08:30:08;;;;;;;27.65;10.52;;;;;;;10.42;100.00;99207.72;6080491;19;20482;-69
2023/10/27 08:32:14;;;;;;;24.08;9.50;;;;;;;10.45;100.00;99209.31;6081932;19;20010;-68
2023/10/27 08:34:21;;;;;;;25.30;9.15;;;;;;;10.41;100.00;99213.09;6083021;19;20011;-69
2023/10/27 08:36:27;;;;;;;29.67;10.60;;;;;;;10.45;100.00;99210.19;6084475;19;20014;-69
2023/10/27 08:38:35;;;;;;;27.00;9.88;;;;;;;10.50;100.00;99210.69;6081149;19;20077;-69
2023/10/27 08:40:40;;;;;;;26.85;10.48;;;;;;;10.53;100.00;99213.13;6075495;19;20007;-69
2023/10/27 08:42:49;;;;;;;28.52;8.75;;;;;;;10.53;100.00;99209.63;6081646;19;20396;-69
2023/10/27 08:44:56;;;;;;;25.45;9.70;;;;;;;10.60;100.00;99213.56;6083166;19;20006;-69
2023/10/27 08:46:58;;;;;;;28.48;9.80;;;;;;;10.58;100.00;99209.34;6086397;19;20300;-69
2023/10/27 08:49:04;;;;;;;20.98;8.52;;;;;;;10.54;100.00;99212.19;6086621;19;20439;-69
2023/10/27 08:51:13;;;;;;;21.80;9.38;;;;;;;10.56;100.00;99212.09;6083814;19;20093;-69
2023/10/27 08:53:17;;;;;;;29.25;10.38;;;;;;;10.55;100.00;99203.34;6078514;19;20082;-68
2023/10/27 08:55:25;;;;;;;23.92;9.18;;;;;;;10.59;100.00;99205.78;6086339;19;20023;-70
2023/10/27 08:57:30;;;;;;;22.30;8.98;;;;;;;10.59;100.00;99208.41;6079159;19;20006;-69
2023/10/27 08:59:35;;;;;;;23.65;9.13;;;;;;;10.65;100.00;99206.19;6084107;19;20015;-68
2023/10/27 09:01:41;;;;;;;28.17;10.23;;;;;;;10.64;100.00;99196.66;6082522;19;20008;-70
2023/10/27 09:04:10;;;;;;;24.70;8.90;;;;;;;10.65;100.00;99190.44;6082979;19;20013;-69
2023/10/27 09:06:16;;;;;;;26.08;9.57;;;;;;;10.72;100.00;99198.78;6083164;19;20376;-69
2023/10/27 09:08:18;;;;;;;24.58;8.25;;;;;;;10.66;100.00;99199.16;6079793;19;20511;-71
2023/10/27 09:10:26;;;;;;;26.45;9.93;;;;;;;10.69;100.00;99194.56;6082519;19;20496;-68
2023/10/27 09:12:37;;;;;;;25.00;9.00;;;;;;;10.77;100.00;99208.03;6081004;19;20093;-69
2023/10/27 09:14:42;;;;;;;23.73;8.48;;;;;;;10.68;100.00;99206.00;6084676;19;20027;-69
2023/10/27 09:16:48;;;;;;;19.65;8.35;;;;;;;10.75;100.00;99209.91;6076474;19;20006;-68
2023/10/27 09:18:55;;;;;;;23.00;7.82;;;;;;;10.76;100.00;99208.09;6085760;19;20010;-68
2023/10/27 09:21:00;;;;;;;23.85;8.07;;;;;;;10.83;100.00;99206.75;6079095;19;20091;-69
2023/10/27 09:23:04;;;;;;;21.60;8.93;;;;;;;10.86;100.00;99208.34;6080427;19;20019;-68
2023/10/27 09:25:17;;;;;;;24.05;8.98;;;;;;;10.83;100.00;99219.06;6080358;19;20393;-69
2023/10/27 09:27:33;;;;;;;23.17;8.32;;;;;;;10.78;100.00;99214.09;6082581;19;20020;-69
2023/10/27 09:29:43;;;;;;;24.83;8.98;;;;;;;10.81;100.00;99213.06;6079785;19;20362;-69
2023/10/27 09:31:48;;;;;;;23.75;8.38;;;;;;;10.84;100.00;99207.59;6079382;19;20010;-69
2023/10/27 09:33:53;;;;;;;22.33;8.55;;;;;;;10.84;100.00;99218.94;6082016;19;20007;-69